Carnival Pride — H3VU — position and weather

sailwx.info

Track history (hours):
 
Tides and Currents Weather Stations Pressure Air Temp Water Temp Dewpoint Dewpoint Depression Visibility Wind Speed Wind Dir Waves Ship Positions

Carnival Pride

Operator: Carnival Cruise Lines

Last reported at 2017-Oct-18 06:00 UTC. Time now 2017-Oct-20 19:58 UTC.
Position N 32°48' W 064°54'.

Type: Ship. MMSI: 354215000.

Wind from 030 at 20 knots

Barometer 1017.9 mb
Air temperature 24.0 ° C
Visibility: greater than 5.4 NM
Dewpoint 22.5 ° C
Water temperature 26.0 ° C

Date/timePositionNaut miles runAvg speedWind from/ knotsBaromVisibWave heightAir tempDewpointWater temp
2017-Oct-18 06:00N 32°48' W 064°54'12510.4 030 / 201017.9 5.4 24.022.526.0
2017-Oct-17 18:00N 33°36' W 067°12'8311.8 020 / 301015.9 5.4 25.020.526.0
2017-Oct-17 11:00N 34°12' W 068°42'2813.8 240 / 51013.510.8 24.021.022.0
2017-Oct-17 09:00N 34°24' W 069°12'27 9.2 110 / 91013.210.8 24.021.023.0
2017-Oct-17 06:00N 34°36' W 069°42'30314.4 190 / 61016.9 5.4 23.019.929.0
2017-Oct-16 09:00N 36°36' W 075°24'2223.5 220 / 251014.610.8 22.018.923.0
2017-Oct-16 08:03N 36°49' W 075°46'116.8
2017-Oct-16 08:00N 36°49' W 075°47'816.6
2017-Oct-16 07:30N 36°54' W 075°55'612.6
2017-Oct-16 07:00N 36°59' W 076°00'3717.0
2017-Oct-16 04:51N 37°36' W 076°04'2217.1
2017-Oct-16 03:35N 37°57' W 076°10'321.9
2017-Oct-16 03:25N 37°60' W 076°12'716.7
2017-Oct-16 03:00N 38°07' W 076°14'1118.1
2017-Oct-16 02:24N 38°17' W 076°17'718.3
2017-Oct-16 02:00N 38°24' W 076°20'918.4
2017-Oct-16 01:30N 38°32' W 076°26'918.2
2017-Oct-16 01:00N 38°41' W 076°26'918.7
2017-Oct-16 00:30N 38°51' W 076°24'917.8
2017-Oct-16 00:00N 38°60' W 076°23'714.9
2017-Oct-15 23:30N 39°07' W 076°24'612.3
2017-Oct-15 23:00N 39°12' W 076°29'510.2
2017-Oct-15 22:30N 39°15' W 076°34'2 3.4
2017-Oct-15 21:58N 39°16' W 076°36'0 0.1
2017-Oct-15 21:28N 39°16' W 076°36'0 0.0
2017-Oct-15 20:58N 39°16' W 076°36'0 0.0
2017-Oct-15 20:28N 39°16' W 076°36'0 0.0
2017-Oct-15 19:58N 39°16' W 076°36'0 0.0
2017-Oct-15 19:28N 39°16' W 076°36'0 0.0
2017-Oct-15 18:58N 39°16' W 076°36'0 0.0
2017-Oct-15 18:28N 39°16' W 076°36'0 0.0
2017-Oct-15 17:58N 39°16' W 076°36'0 0.0
2017-Oct-15 17:28N 39°16' W 076°36'0 0.0
2017-Oct-15 16:58N 39°16' W 076°36'0 0.0
2017-Oct-15 16:28N 39°16' W 076°36'0 0.0
2017-Oct-15 15:58N 39°16' W 076°36'0 0.0
2017-Oct-15 15:28N 39°16' W 076°36'0 0.0
2017-Oct-15 14:58N 39°16' W 076°36'2 2.0
2017-Oct-15 14:01N 39°15' W 076°34'510.0
2017-Oct-15 13:31N 39°12' W 076°29'611.9
2017-Oct-15 13:00N 39°07' W 076°24'713.4
2017-Oct-15 12:30N 39°01' W 076°23'917.2
2017-Oct-15 12:00N 38°52' W 076°24'1019.9
2017-Oct-15 11:29N 38°42' W 076°26'1019.7
2017-Oct-15 11:00N 38°32' W 076°26'1019.8
2017-Oct-15 10:30N 38°23' W 076°20'1020.1
2017-Oct-15 10:00N 38°14' W 076°16'1020.1
2017-Oct-15 09:30N 38°04' W 076°13'1019.9
2017-Oct-15 09:00N 37°55' W 076°09'1119.9
2017-Oct-15 08:28N 37°44' W 076°11'1017.1
2017-Oct-15 07:52N 37°35' W 076°04'716.1
2017-Oct-15 07:27N 37°29' W 076°03'818.1
2017-Oct-15 07:00N 37°21' W 076°05'918.5
2017-Oct-15 06:30N 37°12' W 076°09'917.8
2017-Oct-15 05:59N 37°04' W 076°05'917.8
2017-Oct-15 05:30N 36°57' W 075°58'713.1
2017-Oct-15 05:00N 36°53' W 075°52'918.7
2017-Oct-15 04:30N 36°47' W 075°43'35718.3
2017-Oct-14 09:00N 31°24' W 078°48'22022.0 060 / 161020.810.8 26.019.923.0
2017-Oct-13 23:00N 27°48' W 079°36'   100 / 251016.910.8 27.024.128.0
2017-Oct-09 10:42N 36°11' W 075°20'415.8
2017-Oct-09 10:28N 36°14' W 075°22'1115.8
2017-Oct-09 09:48N 36°23' W 075°28'516.1
2017-Oct-09 09:27N 36°28' W 075°32'715.9
2017-Oct-09 09:00N 36°34' W 075°36'7525.4
2017-Oct-09 09:00N 36°30' W 075°30'1528.9 190 / 181017.610.8 23.021.523.0
2017-Oct-09 08:29N 36°42' W 075°41'816.2
2017-Oct-09 08:00N 36°48' W 075°46'816.4
2017-Oct-09 07:30N 36°53' W 075°54'612.9
2017-Oct-09 07:00N 36°58' W 075°60'815.1
2017-Oct-09 06:30N 37°04' W 076°05'1816.1
2017-Oct-09 05:23N 37°22' W 076°05'716.5
2017-Oct-09 04:57N 37°29' W 076°04'715.9
2017-Oct-09 04:30N 37°36' W 076°05'917.4
2017-Oct-09 03:59N 37°44' W 076°11'918.8
2017-Oct-09 03:29N 37°53' W 076°09'918.4
2017-Oct-09 03:00N 38°01' W 076°13'919.1
2017-Oct-09 02:30N 38°11' W 076°14'1019.0
2017-Oct-09 01:59N 38°20' W 076°19'918.9
2017-Oct-09 01:30N 38°28' W 076°23'917.7
2017-Oct-09 00:59N 38°38' W 076°25'818.0
2017-Oct-09 00:30N 38°46' W 076°26'917.9
2017-Oct-09 00:00N 38°55' W 076°24'713.9
2017-Oct-08 23:30N 39°02' W 076°23'713.3
2017-Oct-08 23:00N 39°08' W 076°24'612.0
2017-Oct-08 22:30N 39°12' W 076°30'5 9.6
2017-Oct-08 22:01N 39°15' W 076°35'1 2.0
2017-Oct-08 21:28N 39°16' W 076°36'0 0.0
2017-Oct-08 20:58N 39°16' W 076°36'0 0.0
2017-Oct-08 20:28N 39°16' W 076°36'0 0.0
2017-Oct-08 19:58N 39°16' W 076°36'0 0.0
2017-Oct-08 19:31N 39°16' W 076°36'0 0.0
2017-Oct-08 18:58N 39°16' W 076°36'0 0.0
2017-Oct-08 18:28N 39°16' W 076°36'0 0.0
2017-Oct-08 18:01N 39°16' W 076°36'0 0.0
2017-Oct-08 17:28N 39°16' W 076°36'0 0.0
2017-Oct-08 16:58N 39°16' W 076°36'0 0.0
2017-Oct-08 16:28N 39°16' W 076°36'0 0.0
2017-Oct-08 16:01N 39°16' W 076°36'0 0.0
2017-Oct-08 15:28N 39°16' W 076°36'0 0.0
2017-Oct-08 14:58N 39°16' W 076°36'0 0.0
2017-Oct-08 14:28N 39°16' W 076°36'0 0.1
2017-Oct-08 14:00N 39°16' W 076°36'3 5.3
2017-Oct-08 13:31N 39°14' W 076°33'510.4
2017-Oct-08 13:01N 39°11' W 076°28'612.2
2017-Oct-08 12:31N 39°06' W 076°24'815.2
2017-Oct-08 12:01N 38°58' W 076°23'917.1
2017-Oct-08 11:31N 38°50' W 076°24'1019.2
2017-Oct-08 10:59N 38°40' W 076°25'3019.0
2017-Oct-08 09:23N 38°11' W 076°14'919.2
2017-Oct-08 08:55N 38°02' W 076°13'1118.5
2017-Oct-08 08:19N 37°51' W 076°09'719.2
2017-Oct-08 07:56N 37°44' W 076°11'818.2
2017-Oct-08 07:28N 37°37' W 076°05'916.7
2017-Oct-08 06:55N 37°27' W 076°04'818.5
2017-Oct-08 06:31N 37°20' W 076°05'  
Track history (hours):
 
Tides and Currents Weather Stations Pressure Air Temp Water Temp Dewpoint Dewpoint Depression Visibility Wind Speed Wind Dir Waves Ship Positions

Carnival Pride

Operator: Carnival Cruise Lines

Last reported at 2017-Oct-18 06:00 UTC. Time now 2017-Oct-20 19:58 UTC.
Position N 32°48' W 064°54'.

Type: Ship. MMSI: 354215000.

Wind from 030 at 20 knots

Barometer 1017.9 mb
Air temperature 24.0 ° C
Visibility: greater than 5.4 NM
Dewpoint 22.5 ° C
Water temperature 26.0 ° C

Date/timePositionNaut miles runAvg speedWind from/ knotsBaromVisibWave heightAir tempDewpointWater temp
2017-Oct-18 06:00N 32°48' W 064°54'12510.4 030 / 201017.9 5.4 24.022.526.0
2017-Oct-17 18:00N 33°36' W 067°12'8311.8 020 / 301015.9 5.4 25.020.526.0
2017-Oct-17 11:00N 34°12' W 068°42'2813.8 240 / 51013.510.8 24.021.022.0
2017-Oct-17 09:00N 34°24' W 069°12'27 9.2 110 / 91013.210.8 24.021.023.0
2017-Oct-17 06:00N 34°36' W 069°42'30314.4 190 / 61016.9 5.4 23.019.929.0
2017-Oct-16 09:00N 36°36' W 075°24'2223.5 220 / 251014.610.8 22.018.923.0
2017-Oct-16 08:03N 36°49' W 075°46'116.8
2017-Oct-16 08:00N 36°49' W 075°47'816.6
2017-Oct-16 07:30N 36°54' W 075°55'612.6
2017-Oct-16 07:00N 36°59' W 076°00'3717.0
2017-Oct-16 04:51N 37°36' W 076°04'2217.1
2017-Oct-16 03:35N 37°57' W 076°10'321.9
2017-Oct-16 03:25N 37°60' W 076°12'716.7
2017-Oct-16 03:00N 38°07' W 076°14'1118.1
2017-Oct-16 02:24N 38°17' W 076°17'718.3
2017-Oct-16 02:00N 38°24' W 076°20'918.4
2017-Oct-16 01:30N 38°32' W 076°26'918.2
2017-Oct-16 01:00N 38°41' W 076°26'918.7
2017-Oct-16 00:30N 38°51' W 076°24'917.8
2017-Oct-16 00:00N 38°60' W 076°23'714.9
2017-Oct-15 23:30N 39°07' W 076°24'612.3
2017-Oct-15 23:00N 39°12' W 076°29'510.2
2017-Oct-15 22:30N 39°15' W 076°34'2 3.4
2017-Oct-15 21:58N 39°16' W 076°36'0 0.1
2017-Oct-15 21:28N 39°16' W 076°36'0 0.0
2017-Oct-15 20:58N 39°16' W 076°36'0 0.0
2017-Oct-15 20:28N 39°16' W 076°36'0 0.0
2017-Oct-15 19:58N 39°16' W 076°36'0 0.0
2017-Oct-15 19:28N 39°16' W 076°36'0 0.0
2017-Oct-15 18:58N 39°16' W 076°36'0 0.0
2017-Oct-15 18:28N 39°16' W 076°36'0 0.0
2017-Oct-15 17:58N 39°16' W 076°36'0 0.0
2017-Oct-15 17:28N 39°16' W 076°36'0 0.0
2017-Oct-15 16:58N 39°16' W 076°36'0 0.0
2017-Oct-15 16:28N 39°16' W 076°36'0 0.0
2017-Oct-15 15:58N 39°16' W 076°36'0 0.0
2017-Oct-15 15:28N 39°16' W 076°36'0 0.0
2017-Oct-15 14:58N 39°16' W 076°36'2 2.0
2017-Oct-15 14:01N 39°15' W 076°34'510.0
2017-Oct-15 13:31N 39°12' W 076°29'611.9
2017-Oct-15 13:00N 39°07' W 076°24'713.4
2017-Oct-15 12:30N 39°01' W 076°23'917.2
2017-Oct-15 12:00N 38°52' W 076°24'1019.9
2017-Oct-15 11:29N 38°42' W 076°26'1019.7
2017-Oct-15 11:00N 38°32' W 076°26'1019.8
2017-Oct-15 10:30N 38°23' W 076°20'1020.1
2017-Oct-15 10:00N 38°14' W 076°16'1020.1
2017-Oct-15 09:30N 38°04' W 076°13'1019.9
2017-Oct-15 09:00N 37°55' W 076°09'1119.9
2017-Oct-15 08:28N 37°44' W 076°11'1017.1
2017-Oct-15 07:52N 37°35' W 076°04'716.1
2017-Oct-15 07:27N 37°29' W 076°03'818.1
2017-Oct-15 07:00N 37°21' W 076°05'918.5
2017-Oct-15 06:30N 37°12' W 076°09'917.8
2017-Oct-15 05:59N 37°04' W 076°05'917.8
2017-Oct-15 05:30N 36°57' W 075°58'713.1
2017-Oct-15 05:00N 36°53' W 075°52'918.7
2017-Oct-15 04:30N 36°47' W 075°43'35718.3
2017-Oct-14 09:00N 31°24' W 078°48'22022.0 060 / 161020.810.8 26.019.923.0
2017-Oct-13 23:00N 27°48' W 079°36'   100 / 251016.910.8 27.024.128.0
2017-Oct-09 10:42N 36°11' W 075°20'415.8
2017-Oct-09 10:28N 36°14' W 075°22'1115.8
2017-Oct-09 09:48N 36°23' W 075°28'516.1
2017-Oct-09 09:27N 36°28' W 075°32'715.9
2017-Oct-09 09:00N 36°34' W 075°36'7525.4
2017-Oct-09 09:00N 36°30' W 075°30'1528.9 190 / 181017.610.8 23.021.523.0
2017-Oct-09 08:29N 36°42' W 075°41'816.2
2017-Oct-09 08:00N 36°48' W 075°46'816.4
2017-Oct-09 07:30N 36°53' W 075°54'612.9
2017-Oct-09 07:00N 36°58' W 075°60'815.1
2017-Oct-09 06:30N 37°04' W 076°05'1816.1
2017-Oct-09 05:23N 37°22' W 076°05'716.5
2017-Oct-09 04:57N 37°29' W 076°04'715.9
2017-Oct-09 04:30N 37°36' W 076°05'917.4
2017-Oct-09 03:59N 37°44' W 076°11'918.8
2017-Oct-09 03:29N 37°53' W 076°09'918.4
2017-Oct-09 03:00N 38°01' W 076°13'919.1
2017-Oct-09 02:30N 38°11' W 076°14'1019.0
2017-Oct-09 01:59N 38°20' W 076°19'918.9
2017-Oct-09 01:30N 38°28' W 076°23'917.7
2017-Oct-09 00:59N 38°38' W 076°25'818.0
2017-Oct-09 00:30N 38°46' W 076°26'917.9
2017-Oct-09 00:00N 38°55' W 076°24'713.9
2017-Oct-08 23:30N 39°02' W 076°23'713.3
2017-Oct-08 23:00N 39°08' W 076°24'612.0
2017-Oct-08 22:30N 39°12' W 076°30'5 9.6
2017-Oct-08 22:01N 39°15' W 076°35'1 2.0
2017-Oct-08 21:28N 39°16' W 076°36'0 0.0
2017-Oct-08 20:58N 39°16' W 076°36'0 0.0
2017-Oct-08 20:28N 39°16' W 076°36'0 0.0
2017-Oct-08 19:58N 39°16' W 076°36'0 0.0
2017-Oct-08 19:31N 39°16' W 076°36'0 0.0
2017-Oct-08 18:58N 39°16' W 076°36'0 0.0
2017-Oct-08 18:28N 39°16' W 076°36'0 0.0
2017-Oct-08 18:01N 39°16' W 076°36'0 0.0
2017-Oct-08 17:28N 39°16' W 076°36'0 0.0
2017-Oct-08 16:58N 39°16' W 076°36'0 0.0
2017-Oct-08 16:28N 39°16' W 076°36'0 0.0
2017-Oct-08 16:01N 39°16' W 076°36'0 0.0
2017-Oct-08 15:28N 39°16' W 076°36'0 0.0
2017-Oct-08 14:58N 39°16' W 076°36'0 0.0
2017-Oct-08 14:28N 39°16' W 076°36'0 0.1
2017-Oct-08 14:00N 39°16' W 076°36'3 5.3
2017-Oct-08 13:31N 39°14' W 076°33'510.4
2017-Oct-08 13:01N 39°11' W 076°28'612.2
2017-Oct-08 12:31N 39°06' W 076°24'815.2
2017-Oct-08 12:01N 38°58' W 076°23'917.1
2017-Oct-08 11:31N 38°50' W 076°24'1019.2
2017-Oct-08 10:59N 38°40' W 076°25'3019.0
2017-Oct-08 09:23N 38°11' W 076°14'919.2
2017-Oct-08 08:55N 38°02' W 076°13'1118.5
2017-Oct-08 08:19N 37°51' W 076°09'719.2
2017-Oct-08 07:56N 37°44' W 076°11'818.2
2017-Oct-08 07:28N 37°37' W 076°05'916.7
2017-Oct-08 06:55N 37°27' W 076°04'818.5
2017-Oct-08 06:31N 37°20' W 076°05'  

Dump ship's entire track history